Barrow, AK

3:09 PM AKDT on March 23, 2017 (GMT -0800)
Wiley Post-Will Rogers Memorial | | Change Station

Elev 43 ft 71.29 °N, 156.77 °W | Updated 16 minutes ago

Snow
Snow
9 °F
Feels Like -6 °F
N
12
Wind Variable Wind from West

Today
High -- | Low -- °F
--% Chance of Precip.
Yesterday
High -- | Low -- °F
Precip. -- in
Pressure 29.90 in
Visibility 7.0 miles
Clouds Scattered Clouds 2900 ft
Windchill -6 °F
Dew Point 4 °F
Humidity 80%
Rainfall 0.54 in
Snow Depth Not available.
8:07 AM 9:01 PM
Waning Crescent, 20% visible
METAR PABR 232253Z 26010KT 7SM -SN SCT029 M13/M16 A2989 RMK AO2 SNE2155B41 SLP124 P0000 T11281156
Pressure 29.90 in
Visibility 7.0 miles
Clouds Scattered Clouds 2900 ft
Windchill -6 °F
Dew Point 4 °F
Humidity 80%
Rainfall 0.54 in
Snow Depth Not available.
8:07 AM 9:01 PM
Waning Crescent, 20% visible
METAR PABR 232253Z 26010KT 7SM -SN SCT029 M13/M16 A2989 RMK AO2 SNE2155B41 SLP124 P0000 T11281156

Get Severe Weather Alerts

Thanks for signing up!

Be on the lookout for a verification email in your inbox.

You'll start receiving the daily forecast at 8 AM.

×

10-Day Weather Forecast

Almanac

Astronomy

Mar. 23, 2017 Rise Set
Actual Time
Civil Twilight
Nautical Twilight
Astronomical Twilight
Moon
Length of Visible Light
Length of Day
Tomorrow will be .
, % of the Moon is Illuminated

Today's Extremes

State Highs State Lows

Community

WunderPhotos

Upload Photos

1,962,540 photos uploaded!

WunderBlog® & News

Nearby

Air Quality

  Air Quality AQ Index Pollutant
Not available.

Snow Depth

Station Depth Elevation

Earthquake Activity

City Distance Mag. Time & Date
Minimum magnitude displayed is 2.5.

Earthquake Activity

City Distance Mag. Time & Date
Minimum magnitude displayed is 2.5.

Coastal Water Temperatures

Place Temperature

Stations

Nearby Weather Stations

Station Location Temp. Windchill Dew Point Humidity Wind Precip. Elev Updated Type
                   

Watches & Warnings

There are currently no watches in effect.